Flight Track Log - Related Links

Times and Time Zones

All times are in EDT time to prevent confusion due to time zone crossing. See the UPS984 flight status page for this flight to view local times or setup timezone preferences in your user account.

Time Position Orientation Groundspeed Altitude Reporting Facility
EDT Latitude Longitude Course Direction KTS MPH feet Rate Location/Type
Thu 09:07:48 AM 47.5179 -122.2910 142° Southeast 147 169 1,300  Level FlightAware ADS-B
Thu 09:08:00 AM 47.5116 -122.2830 139° Southeast 153 176 1,900 2,182 Climbing FlightAware ADS-B
Thu 09:08:10 AM 47.5056 -122.2760 142° Southeast 172 198 2,100 1,440 Climbing FlightAware ADS-B
Thu 09:08:25 AM 47.4955 -122.2640 141° Southeast 200 230 2,500 2,357 Climbing FlightAware ADS-B
Thu 09:08:38 AM 47.4855 -122.2520 141° Southeast 212 244 3,200 3,000 Climbing FlightAware ADS-B
Thu 09:08:43 AM 47.4816 -122.2480 145° Southeast 217 250 3,400 2,667 Climbing FlightAware ADS-B
Thu 09:08:47 AM 47.4787 -122.2440 137° Southeast 224 258 3,600 2,250 Climbing FlightAware ADS-B
Thu 09:08:51 AM 47.4759 -122.2390 130° Southeast 239 275 3,700 1,714 Climbing FlightAware ADS-B
Thu 09:08:54 AM 47.4740 -122.2350 125° Southeast 249 287 3,800 750 Climbing FlightAware ADS-B
Thu 09:08:59 AM 47.4716 -122.2280 117° Southeast 262 302 3,800 750 Level FlightAware ADS-B
Thu 09:09:02 AM 47.4702 -122.2210 106° East 274 315 3,900 2,000 Climbing FlightAware ADS-B
Thu 09:09:05 AM 47.4693 -122.2150 103° East 282 325 4,000 1,714 Climbing FlightAware ADS-B
Thu 09:09:09 AM 47.4689 -122.2080 95° East 289 333 4,100 2,571 Climbing FlightAware ADS-B
Thu 09:09:12 AM 47.4689 -122.2010 90° East 292 336 4,300 4,000 Climbing FlightAware ADS-B
Thu 09:09:15 AM 47.4694 -122.1950 83° East 294 338 4,500 3,750 Climbing FlightAware ADS-B
Thu 09:09:20 AM 47.4705 -122.1870 78° East 294 338 4,800 4,000 Climbing FlightAware ADS-B
Thu 09:09:24 AM 47.4725 -122.1780 72° East 293 337 5,100 5,143 Climbing FlightAware ADS-B
Thu 09:09:34 AM 47.4775 -122.1590 69° East 290 334 6,000 5,250 Climbing FlightAware ADS-B
Thu 09:09:40 AM 47.4796 -122.1490 73° East 289 333 6,500 4,200 Climbing FlightAware ADS-B
Thu 09:09:54 AM 47.4846 -122.1210 75° East 294 338 7,400 4,000 Climbing FlightAware ADS-B
Thu 09:10:01 AM 47.4871 -122.1080 74° East 297 342 7,900 3,273 Climbing FlightAware ADS-B
Thu 09:10:16 AM 47.4931 -122.0780 74° East 307 353 8,600 3,200 Climbing FlightAware ADS-B
Thu 09:10:31 AM 47.4992 -122.0470 74° East 313 360 9,500 2,870 Climbing FlightAware ADS-B
Thu 09:11:02 AM 47.5124 -121.9820 73° East 343 395 10,800 2,262 Climbing FlightAware ADS-B
Thu 09:11:32 AM 47.5275 -121.9090 73° East 387 445 11,800 3,100 Climbing FlightAware ADS-B
Thu 09:12:02 AM 47.5435 -121.8300 73° East 407 468 13,900 3,830 Climbing FlightAware ADS-B
Thu 09:12:19 AM 47.5524 -121.7860 73° East 420 483 14,800 3,724 Climbing FlightAware ADS-B
Thu 09:12:31 AM 47.5575 -121.7520 77° East 428 493 15,700 4,000 Climbing FlightAware ADS-B
Thu 09:12:46 AM 47.5610 -121.7060 84° East 443 510 16,600 3,391 Climbing FlightAware ADS-B
Thu 09:13:17 AM 47.5617 -121.6110 89° East 467 537 18,300 3,443 Climbing FlightAware ADS-B
Thu 09:13:47 AM 47.5600 -121.5130 91° East 480 552 20,100 4,000 Climbing FlightAware ADS-B
Thu 09:14:17 AM 47.5580 -121.4140 92° East 477 549 22,300 3,900 Climbing FlightAware ADS-B
Thu 09:14:47 AM 47.5562 -121.3160 92° East 480 552 24,000 2,571 Climbing FlightAware ADS-B
Thu 09:15:20 AM 47.5546 -121.2060 91° East 502 578 25,000 952 Climbing FlightAware ADS-B
Thu 09:15:50 AM 47.5530 -121.0980 91° East 536 617 25,000 100 Level FlightAware ADS-B
Thu 09:16:20 AM 47.5508 -120.9870 92° East 542 624 25,100  Climbing FlightAware ADS-B
Thu 09:16:56 AM 47.5481 -120.8530 92° East 542 624 25,000  Descending FlightAware ADS-B
Thu 09:17:27 AM 47.5457 -120.7410 92° East 536 617 25,100  Climbing FlightAware ADS-B
Thu 09:17:57 AM 47.5434 -120.6320 92° East 530 610 25,000 -98 Descending FlightAware ADS-B
Thu 09:18:28 AM 47.5410 -120.5200 92° East 530 610 25,000  Level FlightAware ADS-B
Thu 09:18:58 AM 47.5386 -120.4090 92° East 531 611 25,000  Level FlightAware ADS-B
Thu 09:19:30 AM 47.5341 -120.2940 93° East 529 609 25,000 88 Level FlightAware ADS-B
Thu 09:20:06 AM 47.5277 -120.1640 94° East 531 611 25,100 75 Climbing FlightAware ADS-B
Thu 09:20:50 AM 47.5197 -120.0060 94° East 533 613 25,100 -77 Level FlightAware ADS-B
Thu 09:21:24 AM 47.5138 -119.8840 94° East 533 613 25,000 -67 Descending FlightAware ADS-B
Thu 09:22:20 AM 47.5033 -119.6770 94° East 534 615 25,000 -533 Level FlightAware ADS-B
Thu 09:22:54 AM 47.4970 -119.5540 94° East 534 615 24,200 -1,500 Descending FlightAware ADS-B
Thu 09:23:32 AM 47.4900 -119.4200 94° East 507 583 23,200 -1,775 Descending FlightAware ADS-B
Thu 09:24:05 AM 47.4840 -119.3130 95° East 494 568 22,100 -973 Descending FlightAware ADS-B
Thu 09:24:46 AM 47.4780 -119.1910 94° East 485 558 22,000 -78 Descending FlightAware ADS-B
Thu 09:25:22 AM 47.4730 -119.0900 94° East 485 558 22,000  Level FlightAware ADS-B
Thu 09:26:10 AM 47.4670 -118.9550 94° East 485 558 22,000  Level FlightAware ADS-B
Thu 09:27:10 AM 47.4590 -118.7860 94° East 485 558 22,000  Level FlightAware ADS-B
Thu 09:27:46 AM 47.4540 -118.6840 94° East 485 558 22,000  Level FlightAware ADS-B
Thu 09:28:10 AM 47.4510 -118.6170 94° East 485 558 22,000 -5,872 Level FlightAware ADS-B
Thu 09:29:20 AM 47.4317 -118.4303 94° East 368 423 12,800 -5,031 Descending Seattle Center
Thu 09:30:20 AM 47.4294 -118.2939 91° East 337 388 11,100 -1,240 Descending Seattle Center
Thu 09:31:21 AM 47.4717 -118.1769 62° Northeast 323 372 10,300 -1,041 Descending Seattle Center
Thu 09:32:21 AM 47.5208 -118.0464 61° Northeast 305 351 9,000 -1,339 Descending Seattle Center
Thu 09:33:22 AM 47.5603 -117.9417 61° Northeast 293 337 7,600 -1,180 Descending Seattle Center
Thu 09:34:23 AM 47.6011 -117.8331 61° Northeast 301 346 6,600 -744 Descending Seattle Center
Thu 09:35:23 AM 47.6394 -117.7331 60° Northeast 283 326 6,100 -744 Descending Seattle Center
Thu 09:36:24 AM 47.6803 -117.6433 56° Northeast 266 306 5,100 -843 Descending Seattle Center
Thu 09:37:24 AM 47.7253 -117.5603 51° Northeast 259 298 4,400 -397 Descending Seattle Center
Thu 09:38:25 AM 47.7644 -117.4858 52° Northeast 225 259 4,300 -50 Descending Seattle Center
Thu 09:39:25 AM 47.7864 -117.4208 63° Northeast 194 223 4,300 -50 Level Seattle Center
Thu 09:40:26 AM 47.7511 -117.3711 137° Southeast 177 204 4,200 -148 Descending Seattle Center
Thu 09:41:27 AM 47.7092 -117.4000 205° Southwest 167 192 4,000 -248 Descending Seattle Center
Thu 09:42:27 AM 47.6786 -117.4478 226° Southwest 160 184 3,700 -496 Descending Seattle Center
Thu 09:43:28 AM 47.6525 -117.4869 225° Southwest 138 159 3,000 -694 Descending Seattle Center
Thu 09:44:28 AM 47.6275 -117.5242 225° Southwest 130 150 2,300 -347 Descending Seattle Center
Thu 09:45:29 AM 47.6186 -117.5383 227° Southwest 78 90 2,300  Level Seattle Center
Thu 09:47:00 AM 47.6167 -117.5333 North  Level FlightAware Approximate

Login

Don't have an account? Register now (free) for customized features, flight alerts, and more!